createdAt,value
2023-02-13T00:01:26.680Z,103411.25
2023-02-13T00:05:30.054Z,103411.44
2023-02-13T00:09:35.305Z,103403.91
2023-02-13T00:13:39.367Z,103409.47
2023-02-13T00:17:43.029Z,103393.53
2023-02-13T00:21:45.941Z,103388.59
2023-02-13T00:25:50.373Z,103378.91
2023-02-13T00:29:53.502Z,103383.47
2023-02-13T00:33:56.802Z,103394.81
2023-02-13T00:38:01.636Z,103382.41
2023-02-13T00:42:30.718Z,103388.34
2023-02-13T00:46:41.768Z,103389.47
2023-02-13T00:50:46.158Z,103382.38
2023-02-13T00:54:49.273Z,103383.66
2023-02-13T00:58:54.909Z,103387.72
2023-02-13T01:03:00.547Z,103387.88
2023-02-13T01:07:03.499Z,103389.75
2023-02-13T01:11:07.137Z,103384.34
2023-02-13T01:15:12.047Z,103390.59
2023-02-13T01:19:15.886Z,103396.16
2023-02-13T01:23:20.089Z,103389.88
2023-02-13T01:27:23.080Z,103381.75
2023-02-13T01:31:30.587Z,103381.22
2023-02-13T01:35:36.715Z,103376.66
2023-02-13T01:39:44.923Z,103376.84
2023-02-13T01:43:52.081Z,103374.25
2023-02-13T01:48:01.134Z,103369.84
2023-02-13T01:52:04.628Z,103363.59
2023-02-13T01:56:15.042Z,103366.63
2023-02-13T02:00:18.469Z,103368.47
2023-02-13T02:04:26.397Z,103363.19
2023-02-13T02:08:30.478Z,103360.66
2023-02-13T02:12:39.216Z,103359.13
2023-02-13T02:16:43.569Z,103359.13
2023-02-13T02:21:19.702Z,103357.56
2023-02-13T02:25:52.979Z,103356.72
2023-02-13T02:30:25.854Z,103351.28
2023-02-13T02:34:38.454Z,103352.31
2023-02-13T02:39:01.184Z,103348.91
2023-02-13T02:43:15.689Z,103343.50
2023-02-13T02:47:44.057Z,103345.53
2023-02-13T02:51:58.964Z,103346.53
2023-02-13T02:56:10.739Z,103343.81
2023-02-13T03:00:32.146Z,103342.94
2023-02-13T03:04:58.444Z,103339.25
2023-02-13T03:09:22.136Z,103340.94
2023-02-13T03:13:40.423Z,103341.97
2023-02-13T03:18:02.128Z,103341.97
2023-02-13T03:22:23.640Z,103343.94
2023-02-13T03:26:50.060Z,103337.53
2023-02-13T03:31:01.608Z,103344.81
2023-02-13T03:35:51.470Z,103344.97
2023-02-13T03:40:02.279Z,103337.00
2023-02-13T03:44:24.274Z,103344.13
2023-02-13T03:48:49.701Z,103344.66
2023-02-13T03:52:56.803Z,103349.91
2023-02-13T03:57:17.307Z,103347.91
2023-02-13T04:01:26.280Z,103343.50
2023-02-13T04:05:33.063Z,103341.63
2023-02-13T04:09:39.709Z,103346.19
2023-02-13T04:13:47.722Z,103354.00
2023-02-13T04:17:57.792Z,103348.06
2023-02-13T04:22:03.284Z,103340.78
2023-02-13T04:26:14.466Z,103334.06
2023-02-13T04:30:17.738Z,103331.19
2023-02-13T04:34:23.182Z,103338.75
2023-02-13T04:38:26.279Z,103349.44
2023-02-13T04:42:29.254Z,103341.00
2023-02-13T04:46:32.276Z,103337.13
2023-02-13T04:50:36.943Z,103332.56
2023-02-13T04:54:40.089Z,103329.00
2023-02-13T04:58:43.135Z,103330.19
2023-02-13T05:02:46.092Z,103330.19
2023-02-13T05:06:50.424Z,103325.28
2023-02-13T05:10:53.583Z,103322.22
2023-02-13T05:14:56.491Z,103326.47
2023-02-13T05:18:59.896Z,103324.59
2023-02-13T05:23:26.956Z,103325.44
2023-02-13T05:27:29.855Z,103318.97
2023-02-13T05:31:32.948Z,103321.38
2023-02-13T05:35:35.851Z,103324.94
2023-02-13T05:39:40.280Z,103320.03
2023-02-13T05:43:43.374Z,103321.72
2023-02-13T05:47:46.986Z,103324.75
2023-02-13T05:51:52.242Z,103320.34
2023-02-13T05:55:57.174Z,103322.75
2023-02-13T06:00:00.300Z,103324.44
2023-02-13T06:04:04.051Z,103330.84
2023-02-13T06:08:07.172Z,103318.50
2023-02-13T06:12:11.587Z,103322.34
2023-02-13T06:16:15.291Z,103329.78
2023-02-13T06:20:18.547Z,103333.69
2023-02-13T06:24:21.619Z,103331.34
2023-02-13T06:28:26.048Z,103342.72
2023-02-13T06:32:29.759Z,103341.16
2023-02-13T06:36:34.017Z,103342.88
2023-02-13T06:40:37.008Z,103343.38
2023-02-13T06:44:41.661Z,103346.44
2023-02-13T06:48:44.522Z,103344.56
2023-02-13T06:52:48.745Z,103355.22
2023-02-13T06:56:51.819Z,103360.97
2023-02-13T07:00:56.505Z,103366.22
2023-02-13T07:05:01.445Z,103370.34
2023-02-13T07:09:05.195Z,103378.13
2023-02-13T07:13:09.931Z,103373.41
2023-02-13T07:17:14.716Z,103379.66
2023-02-13T07:21:17.720Z,103381.69
2023-02-13T07:25:20.840Z,103376.13
2023-02-13T07:29:23.692Z,103383.94
2023-02-13T07:33:28.669Z,103385.31
2023-02-13T07:37:32.839Z,103382.47
2023-02-13T07:41:36.061Z,103390.44
2023-02-13T07:45:39.107Z,103377.72
2023-02-13T07:49:44.647Z,103388.13
2023-02-13T07:53:47.560Z,103389.47
2023-02-13T07:57:51.442Z,103383.91
2023-02-13T08:01:55.392Z,103382.06
2023-02-13T08:05:59.865Z,103386.31
2023-02-13T08:10:20.618Z,103385.84
2023-02-13T08:14:24.849Z,103384.31
2023-02-13T08:18:27.960Z,103384.03
2023-02-13T08:22:32.307Z,103381.16
2023-02-13T08:26:36.467Z,103385.88
2023-02-13T08:30:39.712Z,103385.09
2023-02-13T08:34:42.994Z,103390.75
2023-02-13T08:38:47.497Z,103399.94
2023-02-13T08:42:50.481Z,103391.00
2023-02-13T08:46:53.521Z,103393.94
2023-02-13T08:50:56.466Z,103400.56
2023-02-13T08:55:03.357Z,103400.78
2023-02-13T08:59:06.468Z,103401.84
2023-02-13T09:03:10.493Z,103409.16
2023-02-13T09:07:14.680Z,103409.19
2023-02-13T09:11:22.940Z,103401.41
2023-02-13T09:15:25.895Z,103394.31
2023-02-13T09:19:29.123Z,103404.34
2023-02-13T09:23:44.620Z,103407.06
2023-02-13T09:27:54.740Z,103402.69
2023-02-13T09:31:58.167Z,103406.44
2023-02-13T09:36:05.558Z,103411.88
2023-02-13T09:40:19.083Z,103411.56
2023-02-13T09:44:38.879Z,103410.41
2023-02-13T09:48:45.459Z,103413.97
2023-02-13T09:52:50.492Z,103427.03
2023-02-13T09:57:01.946Z,103420.94
2023-02-13T10:01:16.843Z,103414.81
2023-02-13T10:05:33.674Z,103420.44
2023-02-13T10:09:45.757Z,103419.09
2023-02-13T10:14:00.910Z,103412.81
2023-02-13T10:18:11.522Z,103412.63
2023-02-13T10:22:20.022Z,103423.00
2023-02-13T10:26:42.437Z,103408.22
2023-02-13T10:30:53.533Z,103419.25
2023-02-13T10:35:00.259Z,103408.03
2023-02-13T10:39:22.957Z,103404.50
2023-02-13T10:43:30.207Z,103394.63
2023-02-13T10:47:50.070Z,103395.28
2023-02-13T10:52:08.750Z,103392.78
2023-02-13T10:56:28.394Z,103391.91
2023-02-13T11:00:38.647Z,103391.38
2023-02-13T11:04:44.634Z,103386.59
2023-02-13T11:08:49.977Z,103388.09
2023-02-13T11:12:53.334Z,103385.16
2023-02-13T11:17:00.406Z,103377.84
2023-02-13T11:21:09.192Z,103378.00
2023-02-13T11:25:22.082Z,103372.56
2023-02-13T11:29:27.723Z,103372.56
2023-02-13T11:33:31.301Z,103362.81
2023-02-13T11:37:34.398Z,103360.59
2023-02-13T11:41:44.794Z,103354.50
2023-02-13T11:45:48.349Z,103347.22
2023-02-13T11:50:07.169Z,103353.00
2023-02-13T11:54:25.752Z,103354.34
2023-02-13T11:58:30.772Z,103354.34
2023-02-13T12:02:47.160Z,103350.78
2023-02-13T12:07:01.482Z,103348.47
2023-02-13T12:11:24.335Z,103350.72
2023-02-13T12:15:32.775Z,103340.16
2023-02-13T12:19:42.211Z,103334.06
2023-02-13T12:24:04.343Z,103336.56
2023-02-13T12:28:16.249Z,103332.56
2023-02-13T12:32:33.234Z,103323.28
2023-02-13T12:36:50.964Z,103318.47
2023-02-13T12:41:14.717Z,103316.97
2023-02-13T12:45:38.861Z,103312.81
2023-02-13T12:50:18.023Z,103304.44
2023-02-13T12:54:42.328Z,103302.78
2023-02-13T12:59:08.186Z,103290.66
2023-02-13T13:03:33.612Z,103292.22
2023-02-13T13:07:56.485Z,103296.00
2023-02-13T13:12:13.038Z,103280.47
2023-02-13T13:16:25.025Z,103277.91
2023-02-13T13:20:53.093Z,103273.50
2023-02-13T13:25:11.678Z,103269.66
2023-02-13T13:29:21.081Z,103279.59
2023-02-13T13:33:26.294Z,103265.91
2023-02-13T13:37:36.435Z,103259.53
2023-02-13T13:41:49.377Z,103252.19
2023-02-13T13:46:06.953Z,103252.81
2023-02-13T13:50:21.174Z,103249.44
2023-02-13T13:54:35.404Z,103248.38
2023-02-13T13:58:45.658Z,103241.78
2023-02-13T14:02:50.356Z,103240.75
2023-02-13T14:07:24.335Z,103233.44
2023-02-13T14:11:39.780Z,103232.69
2023-02-13T14:15:55.065Z,103233.72
2023-02-13T14:20:01.250Z,103224.72
2023-02-13T14:24:12.511Z,103226.41
2023-02-13T14:28:24.628Z,103219.81
2023-02-13T14:32:36.479Z,103212.31
2023-02-13T14:36:42.078Z,103217.84
2023-02-13T14:40:48.674Z,103208.59
2023-02-13T14:44:54.270Z,103208.06
2023-02-13T14:49:03.390Z,103210.69
2023-02-13T14:53:16.173Z,103211.84
2023-02-13T14:57:23.480Z,103199.53
2023-02-13T15:01:33.600Z,103202.41
2023-02-13T15:05:38.336Z,103203.09
2023-02-13T15:09:52.580Z,103211.44
2023-02-13T15:14:17.226Z,103210.50
2023-02-13T15:18:23.473Z,103207.88
2023-02-13T15:22:33.642Z,103205.97
2023-02-13T15:26:42.590Z,103195.69
2023-02-13T15:30:55.111Z,103192.41
2023-02-13T15:35:24.149Z,103188.16
2023-02-13T15:39:30.675Z,103192.28
2023-02-13T15:43:36.258Z,103182.13
2023-02-13T15:47:39.362Z,103186.63
2023-02-13T15:51:42.826Z,103185.59
2023-02-13T15:55:57.055Z,103176.81
2023-02-13T16:00:02.392Z,103184.19
2023-02-13T16:04:18.884Z,103173.75
2023-02-13T16:08:36.414Z,103177.34
2023-02-13T16:12:49.932Z,103176.56
2023-02-13T16:16:55.443Z,103175.78
2023-02-13T16:21:00.355Z,103180.06
2023-02-13T16:25:22.396Z,103185.56
2023-02-13T16:29:29.742Z,103185.59
2023-02-13T16:33:35.335Z,103185.94
2023-02-13T16:37:51.808Z,103181.75
2023-02-13T16:41:55.565Z,103180.75
2023-02-13T16:46:36.403Z,103177.75
2023-02-13T16:50:39.236Z,103177.13
2023-02-13T16:55:15.593Z,103178.16
2023-02-13T16:59:57.721Z,103176.13
2023-02-13T17:04:20.921Z,103184.16
2023-02-13T17:08:23.819Z,103187.91
2023-02-13T17:12:28.671Z,103185.34
2023-02-13T17:16:37.880Z,103192.31
2023-02-13T17:20:49.680Z,103181.97
2023-02-13T17:24:52.823Z,103186.34
2023-02-13T17:28:59.257Z,103189.06
2023-02-13T17:33:17.677Z,103190.06
2023-02-13T17:37:24.769Z,103186.66
2023-02-13T17:41:27.654Z,103185.97
2023-02-13T17:45:32.575Z,103185.41
2023-02-13T17:49:39.104Z,103207.06
2023-02-13T17:53:44.887Z,103194.81
2023-02-13T17:57:47.780Z,103211.38
2023-02-13T18:01:56.519Z,103213.16
2023-02-13T18:06:15.867Z,103215.16
2023-02-13T18:10:37.765Z,103214.41
2023-02-13T18:14:40.647Z,103213.19
2023-02-13T18:19:08.842Z,103219.56
2023-02-13T18:23:12.089Z,103214.09
2023-02-13T18:27:17.603Z,103210.50
2023-02-13T18:31:22.381Z,103209.56
2023-02-13T18:35:26.669Z,103206.97
2023-02-13T18:39:29.473Z,103202.50
2023-02-13T18:43:33.710Z,103209.53
2023-02-13T18:47:36.812Z,103202.34
2023-02-13T18:51:39.729Z,103194.19
2023-02-13T18:55:42.557Z,103187.84
2023-02-13T18:59:46.872Z,103184.06
2023-02-13T19:03:53.058Z,103178.56
2023-02-13T19:08:01.636Z,103179.34
2023-02-13T19:12:04.586Z,103178.09
2023-02-13T19:16:10.976Z,103174.16
2023-02-13T19:20:33.123Z,103174.91
2023-02-13T19:24:36.329Z,103179.09
2023-02-13T19:28:39.946Z,103173.72
2023-02-13T19:32:44.309Z,103178.88
2023-02-13T19:36:47.158Z,103183.34
2023-02-13T19:41:04.656Z,103184.94
2023-02-13T19:45:08.005Z,103183.69
2023-02-13T19:49:12.249Z,103190.53
2023-02-13T19:53:15.088Z,103184.00
2023-02-13T19:57:18.343Z,103184.31
2023-02-13T20:01:22.750Z,103182.03
2023-02-13T20:05:27.353Z,103182.63
2023-02-13T20:09:30.323Z,103177.81
2023-02-13T20:13:33.213Z,103183.38
2023-02-13T20:17:37.754Z,103181.84
2023-02-13T20:21:42.805Z,103179.41
2023-02-13T20:25:45.904Z,103190.34
2023-02-13T20:29:48.817Z,103181.69
2023-02-13T20:33:52.855Z,103179.28
2023-02-13T20:37:58.860Z,103185.84
2023-02-13T20:42:01.656Z,103191.66
2023-02-13T20:46:04.779Z,103184.16
2023-02-13T20:50:08.567Z,103187.00
2023-02-13T20:54:12.829Z,103184.72
2023-02-13T20:58:15.658Z,103183.47
2023-02-13T21:02:20.878Z,103186.47
2023-02-13T21:06:26.326Z,103193.00
2023-02-13T21:10:30.430Z,103197.13
2023-02-13T21:14:39.673Z,103194.16
2023-02-13T21:18:43.747Z,103182.94
2023-02-13T21:22:47.105Z,103186.91
2023-02-13T21:26:53.256Z,103187.19
2023-02-13T21:30:57.595Z,103186.91
2023-02-13T21:35:00.555Z,103182.66
2023-02-13T21:39:03.401Z,103176.00
2023-02-13T21:43:07.571Z,103177.41
2023-02-13T21:47:10.395Z,103179.66
2023-02-13T21:51:15.525Z,103172.88
2023-02-13T21:55:20.440Z,103177.97
2023-02-13T21:59:25.589Z,103181.63
2023-02-13T22:03:28.575Z,103166.63
2023-02-13T22:07:31.408Z,103165.19
2023-02-13T22:11:34.996Z,103168.47
2023-02-13T22:15:39.146Z,103168.88
2023-02-13T22:19:56.523Z,103163.19
2023-02-13T22:23:59.414Z,103154.66
2023-02-13T22:28:02.246Z,103155.81
2023-02-13T22:32:06.643Z,103158.75
2023-02-13T22:36:09.946Z,103161.88
2023-02-13T22:40:20.312Z,103157.91
2023-02-13T22:44:30.189Z,103174.31
2023-02-13T22:48:36.294Z,103165.81
2023-02-13T22:52:41.825Z,103172.31
2023-02-13T22:56:45.600Z,103170.75
2023-02-13T23:00:48.410Z,103162.22
2023-02-13T23:04:59.342Z,103168.75
2023-02-13T23:09:02.106Z,103166.31
2023-02-13T23:13:18.868Z,103162.22
2023-02-13T23:17:39.046Z,103162.31
2023-02-13T23:21:43.201Z,103161.91
2023-02-13T23:25:46.067Z,103155.78
2023-02-13T23:29:48.941Z,103153.38
2023-02-13T23:33:51.730Z,103158.16
2023-02-13T23:37:55.964Z,103148.66
2023-02-13T23:41:59.762Z,103150.63
2023-02-13T23:46:03.998Z,103151.91
2023-02-13T23:50:08.567Z,103156.56
2023-02-13T23:54:16.678Z,103150.72
2023-02-13T23:58:19.478Z,103147.44
